sensor_id;sensor_type;location;lat;lon;timestamp;P1;durP1;ratioP1;P2;durP2;ratioP2
20454;SDS011;10386;54.314;10.022;2023-12-22T00:00:57;24.67;;;4.17;;
20454;SDS011;10386;54.314;10.022;2023-12-22T00:03:26;21.13;;;4.23;;
20454;SDS011;10386;54.314;10.022;2023-12-22T00:05:54;25.33;;;4.73;;
20454;SDS011;10386;54.314;10.022;2023-12-22T00:08:26;21.63;;;3.95;;
20454;SDS011;10386;54.314;10.022;2023-12-22T00:10:55;22.53;;;3.63;;
20454;SDS011;10386;54.314;10.022;2023-12-22T00:13:23;18.57;;;3.63;;
20454;SDS011;10386;54.314;10.022;2023-12-22T00:15:54;18.83;;;3.50;;
20454;SDS011;10386;54.314;10.022;2023-12-22T00:18:22;20.50;;;3.77;;
20454;SDS011;10386;54.314;10.022;2023-12-22T00:20:52;22.67;;;4.23;;
20454;SDS011;10386;54.314;10.022;2023-12-22T00:23:23;19.00;;;3.53;;
20454;SDS011;10386;54.314;10.022;2023-12-22T00:25:52;16.57;;;3.40;;
20454;SDS011;10386;54.314;10.022;2023-12-22T00:28:20;22.33;;;4.17;;
20454;SDS011;10386;54.314;10.022;2023-12-22T00:30:48;15.70;;;3.30;;
20454;SDS011;10386;54.314;10.022;2023-12-22T00:33:16;17.77;;;3.70;;
20454;SDS011;10386;54.314;10.022;2023-12-22T00:35:43;20.57;;;3.40;;
20454;SDS011;10386;54.314;10.022;2023-12-22T00:38:12;10.97;;;3.30;;
20454;SDS011;10386;54.314;10.022;2023-12-22T00:40:40;22.20;;;3.53;;
20454;SDS011;10386;54.314;10.022;2023-12-22T00:43:08;18.07;;;3.57;;
20454;SDS011;10386;54.314;10.022;2023-12-22T00:45:38;19.90;;;4.00;;
20454;SDS011;10386;54.314;10.022;2023-12-22T00:48:06;19.10;;;3.10;;
20454;SDS011;10386;54.314;10.022;2023-12-22T00:50:34;15.73;;;3.43;;
20454;SDS011;10386;54.314;10.022;2023-12-22T00:53:02;19.60;;;3.93;;
20454;SDS011;10386;54.314;10.022;2023-12-22T00:55:30;18.53;;;3.10;;
20454;SDS011;10386;54.314;10.022;2023-12-22T00:57:58;18.60;;;3.07;;
20454;SDS011;10386;54.314;10.022;2023-12-22T01:00:27;23.73;;;3.20;;
20454;SDS011;10386;54.314;10.022;2023-12-22T01:02:54;15.70;;;2.87;;
20454;SDS011;10386;54.314;10.022;2023-12-22T01:05:22;15.60;;;3.13;;
20454;SDS011;10386;54.314;10.022;2023-12-22T01:07:50;17.93;;;3.47;;
20454;SDS011;10386;54.314;10.022;2023-12-22T01:10:18;16.87;;;3.27;;
20454;SDS011;10386;54.314;10.022;2023-12-22T01:12:45;20.80;;;3.50;;
20454;SDS011;10386;54.314;10.022;2023-12-22T01:15:13;19.10;;;3.77;;
20454;SDS011;10386;54.314;10.022;2023-12-22T01:17:41;24.77;;;3.57;;
20454;SDS011;10386;54.314;10.022;2023-12-22T01:20:08;20.10;;;5.17;;
20454;SDS011;10386;54.314;10.022;2023-12-22T01:22:36;26.67;;;4.23;;
20454;SDS011;10386;54.314;10.022;2023-12-22T01:25:05;21.10;;;3.50;;
20454;SDS011;10386;54.314;10.022;2023-12-22T01:27:32;16.30;;;3.60;;
20454;SDS011;10386;54.314;10.022;2023-12-22T01:30:00;23.47;;;3.80;;
20454;SDS011;10386;54.314;10.022;2023-12-22T01:32:28;23.40;;;3.53;;
20454;SDS011;10386;54.314;10.022;2023-12-22T01:35:00;21.57;;;5.10;;
20454;SDS011;10386;54.314;10.022;2023-12-22T01:37:30;25.53;;;3.97;;
20454;SDS011;10386;54.314;10.022;2023-12-22T01:39:57;28.37;;;3.30;;
20454;SDS011;10386;54.314;10.022;2023-12-22T01:42:24;12.10;;;3.20;;
20454;SDS011;10386;54.314;10.022;2023-12-22T01:44:52;28.03;;;3.60;;
20454;SDS011;10386;54.314;10.022;2023-12-22T01:47:19;22.77;;;3.23;;
20454;SDS011;10386;54.314;10.022;2023-12-22T01:49:47;17.30;;;3.00;;
20454;SDS011;10386;54.314;10.022;2023-12-22T01:52:16;18.73;;;3.83;;
20454;SDS011;10386;54.314;10.022;2023-12-22T01:54:44;18.60;;;3.97;;
20454;SDS011;10386;54.314;10.022;2023-12-22T01:57:13;24.40;;;3.73;;
20454;SDS011;10386;54.314;10.022;2023-12-22T01:59:44;13.20;;;3.23;;
20454;SDS011;10386;54.314;10.022;2023-12-22T02:02:12;18.50;;;4.07;;
20454;SDS011;10386;54.314;10.022;2023-12-22T02:04:39;18.40;;;3.03;;
20454;SDS011;10386;54.314;10.022;2023-12-22T02:07:08;20.23;;;3.60;;
20454;SDS011;10386;54.314;10.022;2023-12-22T02:09:38;26.30;;;3.87;;
20454;SDS011;10386;54.314;10.022;2023-12-22T02:12:05;16.20;;;3.60;;
20454;SDS011;10386;54.314;10.022;2023-12-22T02:14:32;17.27;;;3.40;;
20454;SDS011;10386;54.314;10.022;2023-12-22T02:17:15;18.23;;;3.80;;
20454;SDS011;10386;54.314;10.022;2023-12-22T02:19:50;17.53;;;3.73;;
20454;SDS011;10386;54.314;10.022;2023-12-22T02:22:18;18.67;;;4.17;;
20454;SDS011;10386;54.314;10.022;2023-12-22T02:24:44;19.47;;;3.33;;
20454;SDS011;10386;54.314;10.022;2023-12-22T02:30:14;15.83;;;3.03;;
20454;SDS011;10386;54.314;10.022;2023-12-22T02:32:59;16.37;;;3.43;;
20454;SDS011;10386;54.314;10.022;2023-12-22T02:35:28;8.37;;;2.13;;
20454;SDS011;10386;54.314;10.022;2023-12-22T02:37:57;8.53;;;2.90;;
20454;SDS011;10386;54.314;10.022;2023-12-22T02:40:26;9.53;;;2.30;;
20454;SDS011;10386;54.314;10.022;2023-12-22T02:42:54;9.93;;;2.40;;
20454;SDS011;10386;54.314;10.022;2023-12-22T02:45:21;3.37;;;1.50;;
20454;SDS011;10386;54.314;10.022;2023-12-22T02:47:48;10.47;;;2.27;;
20454;SDS011;10386;54.314;10.022;2023-12-22T02:50:16;8.20;;;1.90;;
20454;SDS011;10386;54.314;10.022;2023-12-22T02:52:44;10.57;;;2.00;;
20454;SDS011;10386;54.314;10.022;2023-12-22T02:55:11;10.27;;;1.80;;
20454;SDS011;10386;54.314;10.022;2023-12-22T02:57:38;11.13;;;2.40;;
20454;SDS011;10386;54.314;10.022;2023-12-22T03:00:05;13.37;;;2.03;;
20454;SDS011;10386;54.314;10.022;2023-12-22T03:02:33;9.70;;;1.87;;
20454;SDS011;10386;54.314;10.022;2023-12-22T03:05:00;7.47;;;1.97;;
20454;SDS011;10386;54.314;10.022;2023-12-22T03:07:27;10.53;;;1.80;;
20454;SDS011;10386;54.314;10.022;2023-12-22T03:09:54;7.20;;;2.17;;
20454;SDS011;10386;54.314;10.022;2023-12-22T03:12:20;7.13;;;2.17;;
20454;SDS011;10386;54.314;10.022;2023-12-22T03:14:48;10.03;;;2.50;;
20454;SDS011;10386;54.314;10.022;2023-12-22T03:17:15;8.13;;;2.00;;
20454;SDS011;10386;54.314;10.022;2023-12-22T03:19:42;11.37;;;2.40;;
20454;SDS011;10386;54.314;10.022;2023-12-22T03:22:09;11.30;;;1.90;;
20454;SDS011;10386;54.314;10.022;2023-12-22T03:24:42;16.70;;;2.40;;
20454;SDS011;10386;54.314;10.022;2023-12-22T03:27:11;20.53;;;2.57;;
20454;SDS011;10386;54.314;10.022;2023-12-22T03:29:43;12.47;;;3.57;;
20454;SDS011;10386;54.314;10.022;2023-12-22T03:32:10;20.57;;;2.43;;
20454;SDS011;10386;54.314;10.022;2023-12-22T03:34:37;15.77;;;2.43;;
20454;SDS011;10386;54.314;10.022;2023-12-22T03:37:04;13.10;;;2.57;;
20454;SDS011;10386;54.314;10.022;2023-12-22T03:39:31;11.17;;;2.93;;
20454;SDS011;10386;54.314;10.022;2023-12-22T03:41:58;18.03;;;2.90;;
20454;SDS011;10386;54.314;10.022;2023-12-22T03:44:27;17.13;;;2.80;;
20454;SDS011;10386;54.314;10.022;2023-12-22T03:46:55;16.50;;;2.70;;
20454;SDS011;10386;54.314;10.022;2023-12-22T03:49:22;14.30;;;2.50;;
20454;SDS011;10386;54.314;10.022;2023-12-22T03:51:50;14.80;;;3.23;;
20454;SDS011;10386;54.314;10.022;2023-12-22T03:54:17;12.20;;;2.60;;
20454;SDS011;10386;54.314;10.022;2023-12-22T03:56:45;12.60;;;2.63;;
20454;SDS011;10386;54.314;10.022;2023-12-22T03:59:14;15.17;;;2.87;;
20454;SDS011;10386;54.314;10.022;2023-12-22T04:01:50;19.67;;;3.17;;
20454;SDS011;10386;54.314;10.022;2023-12-22T04:04:19;14.33;;;2.90;;
20454;SDS011;10386;54.314;10.022;2023-12-22T04:06:49;26.10;;;4.17;;
20454;SDS011;10386;54.314;10.022;2023-12-22T04:09:18;18.33;;;3.73;;
20454;SDS011;10386;54.314;10.022;2023-12-22T04:11:45;17.37;;;3.03;;
20454;SDS011;10386;54.314;10.022;2023-12-22T04:14:12;16.87;;;3.23;;
20454;SDS011;10386;54.314;10.022;2023-12-22T04:16:39;15.73;;;3.00;;
20454;SDS011;10386;54.314;10.022;2023-12-22T04:19:06;19.33;;;3.33;;
20454;SDS011;10386;54.314;10.022;2023-12-22T04:21:37;18.63;;;3.27;;
20454;SDS011;10386;54.314;10.022;2023-12-22T04:24:04;15.07;;;2.83;;
20454;SDS011;10386;54.314;10.022;2023-12-22T04:26:31;11.97;;;2.63;;
20454;SDS011;10386;54.314;10.022;2023-12-22T04:28:58;15.43;;;2.77;;
20454;SDS011;10386;54.314;10.022;2023-12-22T04:31:25;19.97;;;3.50;;
20454;SDS011;10386;54.314;10.022;2023-12-22T04:33:52;14.43;;;2.87;;
20454;SDS011;10386;54.314;10.022;2023-12-22T04:36:20;14.20;;;3.43;;
20454;SDS011;10386;54.314;10.022;2023-12-22T04:38:46;15.63;;;2.63;;
20454;SDS011;10386;54.314;10.022;2023-12-22T04:41:13;11.93;;;2.87;;
20454;SDS011;10386;54.314;10.022;2023-12-22T04:43:40;10.93;;;3.13;;
20454;SDS011;10386;54.314;10.022;2023-12-22T04:46:07;13.30;;;2.60;;
20454;SDS011;10386;54.314;10.022;2023-12-22T04:48:34;24.20;;;3.03;;
20454;SDS011;10386;54.314;10.022;2023-12-22T04:51:01;14.27;;;3.10;;
20454;SDS011;10386;54.314;10.022;2023-12-22T04:53:28;11.73;;;2.93;;
20454;SDS011;10386;54.314;10.022;2023-12-22T04:55:55;17.23;;;3.07;;
20454;SDS011;10386;54.314;10.022;2023-12-22T04:58:22;10.10;;;2.73;;
20454;SDS011;10386;54.314;10.022;2023-12-22T05:00:49;16.77;;;3.37;;
20454;SDS011;10386;54.314;10.022;2023-12-22T05:03:16;9.43;;;2.90;;
20454;SDS011;10386;54.314;10.022;2023-12-22T05:05:43;15.53;;;2.97;;
20454;SDS011;10386;54.314;10.022;2023-12-22T05:08:10;16.13;;;2.60;;
20454;SDS011;10386;54.314;10.022;2023-12-22T05:10:37;17.70;;;3.17;;
20454;SDS011;10386;54.314;10.022;2023-12-22T05:13:04;14.57;;;2.87;;
20454;SDS011;10386;54.314;10.022;2023-12-22T05:15:31;12.70;;;2.53;;
20454;SDS011;10386;54.314;10.022;2023-12-22T05:17:57;24.47;;;3.30;;
20454;SDS011;10386;54.314;10.022;2023-12-22T05:20:24;20.87;;;3.40;;
20454;SDS011;10386;54.314;10.022;2023-12-22T05:22:51;17.67;;;4.00;;
20454;SDS011;10386;54.314;10.022;2023-12-22T05:25:18;25.90;;;3.90;;
20454;SDS011;10386;54.314;10.022;2023-12-22T05:27:45;21.80;;;3.30;;
20454;SDS011;10386;54.314;10.022;2023-12-22T05:30:12;23.60;;;3.17;;
20454;SDS011;10386;54.314;10.022;2023-12-22T05:32:39;18.73;;;3.53;;
20454;SDS011;10386;54.314;10.022;2023-12-22T05:35:06;24.77;;;3.97;;
20454;SDS011;10386;54.314;10.022;2023-12-22T05:37:33;20.17;;;3.77;;
20454;SDS011;10386;54.314;10.022;2023-12-22T05:40:00;24.30;;;4.00;;
20454;SDS011;10386;54.314;10.022;2023-12-22T05:42:27;18.73;;;4.10;;
20454;SDS011;10386;54.314;10.022;2023-12-22T05:44:54;22.27;;;4.37;;
20454;SDS011;10386;54.314;10.022;2023-12-22T05:47:20;20.23;;;4.00;;
20454;SDS011;10386;54.314;10.022;2023-12-22T05:49:48;16.27;;;4.00;;
20454;SDS011;10386;54.314;10.022;2023-12-22T05:52:15;18.37;;;4.30;;
20454;SDS011;10386;54.314;10.022;2023-12-22T05:54:44;18.23;;;4.53;;
20454;SDS011;10386;54.314;10.022;2023-12-22T05:57:11;27.67;;;4.40;;
20454;SDS011;10386;54.314;10.022;2023-12-22T05:59:39;31.57;;;4.57;;
20454;SDS011;10386;54.314;10.022;2023-12-22T06:02:05;20.03;;;4.37;;
20454;SDS011;10386;54.314;10.022;2023-12-22T06:04:32;22.90;;;3.60;;
20454;SDS011;10386;54.314;10.022;2023-12-22T06:06:59;25.20;;;3.87;;
20454;SDS011;10386;54.314;10.022;2023-12-22T06:09:26;22.40;;;3.80;;
20454;SDS011;10386;54.314;10.022;2023-12-22T06:11:53;28.13;;;5.03;;
20454;SDS011;10386;54.314;10.022;2023-12-22T06:14:20;23.03;;;3.80;;
20454;SDS011;10386;54.314;10.022;2023-12-22T06:16:47;32.50;;;4.90;;
20454;SDS011;10386;54.314;10.022;2023-12-22T06:19:13;25.13;;;4.70;;
20454;SDS011;10386;54.314;10.022;2023-12-22T06:21:41;19.07;;;3.20;;
20454;SDS011;10386;54.314;10.022;2023-12-22T06:24:08;21.23;;;4.17;;
20454;SDS011;10386;54.314;10.022;2023-12-22T06:26:36;18.17;;;3.30;;
20454;SDS011;10386;54.314;10.022;2023-12-22T06:29:03;14.87;;;3.13;;
20454;SDS011;10386;54.314;10.022;2023-12-22T06:31:30;12.27;;;2.93;;
20454;SDS011;10386;54.314;10.022;2023-12-22T06:33:57;20.27;;;3.13;;
20454;SDS011;10386;54.314;10.022;2023-12-22T06:36:29;11.87;;;2.53;;
20454;SDS011;10386;54.314;10.022;2023-12-22T06:38:59;13.93;;;2.90;;
20454;SDS011;10386;54.314;10.022;2023-12-22T06:41:26;11.47;;;2.73;;
20454;SDS011;10386;54.314;10.022;2023-12-22T06:43:56;9.10;;;2.57;;
20454;SDS011;10386;54.314;10.022;2023-12-22T06:46:27;11.33;;;2.53;;
20454;SDS011;10386;54.314;10.022;2023-12-22T06:48:58;12.17;;;2.27;;
20454;SDS011;10386;54.314;10.022;2023-12-22T06:51:28;6.80;;;2.20;;
20454;SDS011;10386;54.314;10.022;2023-12-22T06:54:05;11.30;;;2.57;;
20454;SDS011;10386;54.314;10.022;2023-12-22T06:56:34;9.10;;;2.30;;
20454;SDS011;10386;54.314;10.022;2023-12-22T06:59:02;8.80;;;2.20;;
20454;SDS011;10386;54.314;10.022;2023-12-22T07:01:33;8.80;;;1.90;;
20454;SDS011;10386;54.314;10.022;2023-12-22T07:04:03;14.70;;;3.13;;
20454;SDS011;10386;54.314;10.022;2023-12-22T07:09:36;8.70;;;2.50;;
20454;SDS011;10386;54.314;10.022;2023-12-22T08:51:14;10.63;;;2.37;;
20454;SDS011;10386;54.314;10.022;2023-12-22T08:53:42;10.60;;;2.37;;
20454;SDS011;10386;54.314;10.022;2023-12-22T08:56:08;10.63;;;2.90;;
20454;SDS011;10386;54.314;10.022;2023-12-22T08:58:36;11.23;;;2.30;;
20454;SDS011;10386;54.314;10.022;2023-12-22T09:01:03;9.67;;;2.40;;
20454;SDS011;10386;54.314;10.022;2023-12-22T09:03:33;15.53;;;2.30;;
20454;SDS011;10386;54.314;10.022;2023-12-22T09:06:00;17.33;;;2.80;;
20454;SDS011;10386;54.314;10.022;2023-12-22T09:08:27;13.50;;;2.73;;
20454;SDS011;10386;54.314;10.022;2023-12-22T09:10:54;13.13;;;3.30;;
20454;SDS011;10386;54.314;10.022;2023-12-22T09:13:20;18.90;;;3.23;;
20454;SDS011;10386;54.314;10.022;2023-12-22T09:15:47;19.37;;;2.80;;
20454;SDS011;10386;54.314;10.022;2023-12-22T09:18:15;19.70;;;3.30;;
20454;SDS011;10386;54.314;10.022;2023-12-22T09:20:42;12.93;;;2.60;;
20454;SDS011;10386;54.314;10.022;2023-12-22T09:23:09;11.07;;;2.50;;
20454;SDS011;10386;54.314;10.022;2023-12-22T09:25:36;11.13;;;3.00;;
20454;SDS011;10386;54.314;10.022;2023-12-22T09:28:03;17.33;;;2.50;;
20454;SDS011;10386;54.314;10.022;2023-12-22T09:30:30;8.37;;;2.43;;
20454;SDS011;10386;54.314;10.022;2023-12-22T09:32:58;11.87;;;2.80;;
20454;SDS011;10386;54.314;10.022;2023-12-22T09:35:25;15.57;;;2.77;;
20454;SDS011;10386;54.314;10.022;2023-12-22T09:37:53;10.77;;;2.50;;
20454;SDS011;10386;54.314;10.022;2023-12-22T09:40:20;11.67;;;2.23;;
20454;SDS011;10386;54.314;10.022;2023-12-22T09:42:48;10.20;;;2.27;;
20454;SDS011;10386;54.314;10.022;2023-12-22T09:45:19;9.50;;;2.47;;
20454;SDS011;10386;54.314;10.022;2023-12-22T09:47:48;17.50;;;3.20;;
20454;SDS011;10386;54.314;10.022;2023-12-22T09:50:17;9.97;;;3.03;;
20454;SDS011;10386;54.314;10.022;2023-12-22T09:52:46;12.73;;;2.33;;
20454;SDS011;10386;54.314;10.022;2023-12-22T09:55:13;12.43;;;3.10;;
20454;SDS011;10386;54.314;10.022;2023-12-22T09:57:40;10.93;;;3.53;;
20454;SDS011;10386;54.314;10.022;2023-12-22T10:00:08;12.97;;;2.57;;
20454;SDS011;10386;54.314;10.022;2023-12-22T10:02:36;13.93;;;2.50;;
20454;SDS011;10386;54.314;10.022;2023-12-22T10:05:04;10.77;;;2.57;;
20454;SDS011;10386;54.314;10.022;2023-12-22T10:07:31;14.00;;;2.37;;
20454;SDS011;10386;54.314;10.022;2023-12-22T10:10:00;8.83;;;2.73;;
20454;SDS011;10386;54.314;10.022;2023-12-22T10:12:29;18.60;;;2.37;;
20454;SDS011;10386;54.314;10.022;2023-12-22T10:14:58;10.93;;;2.77;;
20454;SDS011;10386;54.314;10.022;2023-12-22T10:17:27;11.13;;;2.60;;
20454;SDS011;10386;54.314;10.022;2023-12-22T10:19:54;15.03;;;2.57;;
20454;SDS011;10386;54.314;10.022;2023-12-22T10:22:21;9.73;;;2.00;;
20454;SDS011;10386;54.314;10.022;2023-12-22T10:24:50;11.57;;;2.37;;
20454;SDS011;10386;54.314;10.022;2023-12-22T10:27:18;14.00;;;3.07;;
20454;SDS011;10386;54.314;10.022;2023-12-22T10:29:54;10.40;;;2.20;;
20454;SDS011;10386;54.314;10.022;2023-12-22T10:32:22;10.00;;;2.40;;
20454;SDS011;10386;54.314;10.022;2023-12-22T10:34:53;8.57;;;2.20;;
20454;SDS011;10386;54.314;10.022;2023-12-22T10:37:20;6.77;;;2.20;;
20454;SDS011;10386;54.314;10.022;2023-12-22T10:39:54;4.47;;;1.60;;
20454;SDS011;10386;54.314;10.022;2023-12-22T10:42:21;10.07;;;2.10;;
20454;SDS011;10386;54.314;10.022;2023-12-22T10:44:48;10.33;;;2.13;;
20454;SDS011;10386;54.314;10.022;2023-12-22T10:47:18;5.40;;;1.90;;
20454;SDS011;10386;54.314;10.022;2023-12-22T10:49:48;6.23;;;1.63;;
20454;SDS011;10386;54.314;10.022;2023-12-22T10:52:16;5.20;;;1.70;;
20454;SDS011;10386;54.314;10.022;2023-12-22T10:54:44;5.20;;;1.50;;
20454;SDS011;10386;54.314;10.022;2023-12-22T10:57:11;6.70;;;1.60;;
20454;SDS011;10386;54.314;10.022;2023-12-22T10:59:40;8.47;;;1.70;;
20454;SDS011;10386;54.314;10.022;2023-12-22T11:02:23;5.93;;;1.53;;
20454;SDS011;10386;54.314;10.022;2023-12-22T11:05:02;15.03;;;2.13;;
20454;SDS011;10386;54.314;10.022;2023-12-22T11:07:36;5.80;;;1.50;;
20454;SDS011;10386;54.314;10.022;2023-12-22T11:10:07;2.87;;;1.43;;
20454;SDS011;10386;54.314;10.022;2023-12-22T11:12:38;7.03;;;1.77;;
20454;SDS011;10386;54.314;10.022;2023-12-22T11:15:05;8.47;;;1.87;;
20454;SDS011;10386;54.314;10.022;2023-12-22T11:17:34;7.80;;;1.90;;
20454;SDS011;10386;54.314;10.022;2023-12-22T11:20:06;8.67;;;1.53;;
20454;SDS011;10386;54.314;10.022;2023-12-22T11:22:36;8.93;;;2.23;;
20454;SDS011;10386;54.314;10.022;2023-12-22T11:25:03;9.57;;;1.77;;
20454;SDS011;10386;54.314;10.022;2023-12-22T11:27:31;11.77;;;1.80;;
20454;SDS011;10386;54.314;10.022;2023-12-22T11:30:00;6.50;;;1.80;;
20454;SDS011;10386;54.314;10.022;2023-12-22T11:32:28;9.77;;;1.60;;
20454;SDS011;10386;54.314;10.022;2023-12-22T11:34:56;6.83;;;1.87;;
20454;SDS011;10386;54.314;10.022;2023-12-22T11:37:24;6.03;;;1.70;;
20454;SDS011;10386;54.314;10.022;2023-12-22T11:39:50;7.50;;;1.87;;
20454;SDS011;10386;54.314;10.022;2023-12-22T11:42:23;8.17;;;2.00;;
20454;SDS011;10386;54.314;10.022;2023-12-22T11:44:54;3.40;;;2.10;;
20454;SDS011;10386;54.314;10.022;2023-12-22T11:47:24;9.87;;;1.87;;
20454;SDS011;10386;54.314;10.022;2023-12-22T11:49:52;9.33;;;1.77;;
20454;SDS011;10386;54.314;10.022;2023-12-22T11:52:24;12.07;;;2.37;;
20454;SDS011;10386;54.314;10.022;2023-12-22T11:54:53;7.73;;;1.70;;
20454;SDS011;10386;54.314;10.022;2023-12-22T12:00:01;12.07;;;2.13;;
20454;SDS011;10386;54.314;10.022;2023-12-22T12:02:30;10.17;;;2.30;;
20454;SDS011;10386;54.314;10.022;2023-12-22T12:04:58;10.87;;;2.20;;
20454;SDS011;10386;54.314;10.022;2023-12-22T12:07:38;7.57;;;2.63;;
20454;SDS011;10386;54.314;10.022;2023-12-22T12:10:13;10.13;;;2.40;;
20454;SDS011;10386;54.314;10.022;2023-12-22T12:13:07;13.33;;;2.53;;
20454;SDS011;10386;54.314;10.022;2023-12-22T12:15:37;12.07;;;2.37;;
20454;SDS011;10386;54.314;10.022;2023-12-22T12:18:08;12.20;;;2.30;;
20454;SDS011;10386;54.314;10.022;2023-12-22T12:20:35;11.27;;;2.43;;
20454;SDS011;10386;54.314;10.022;2023-12-22T12:23:03;10.33;;;2.53;;
20454;SDS011;10386;54.314;10.022;2023-12-22T12:25:32;6.33;;;2.40;;
20454;SDS011;10386;54.314;10.022;2023-12-22T12:28:06;12.20;;;2.53;;
20454;SDS011;10386;54.314;10.022;2023-12-22T12:30:36;14.13;;;2.43;;
20454;SDS011;10386;54.314;10.022;2023-12-22T12:33:08;5.97;;;1.90;;
20454;SDS011;10386;54.314;10.022;2023-12-22T12:35:37;6.63;;;2.00;;
20454;SDS011;10386;54.314;10.022;2023-12-22T12:38:11;13.47;;;2.23;;
20454;SDS011;10386;54.314;10.022;2023-12-22T12:40:39;7.87;;;2.10;;
20454;SDS011;10386;54.314;10.022;2023-12-22T12:43:08;7.70;;;1.67;;
20454;SDS011;10386;54.314;10.022;2023-12-22T12:45:44;9.83;;;2.20;;
20454;SDS011;10386;54.314;10.022;2023-12-22T12:48:11;11.47;;;2.23;;
20454;SDS011;10386;54.314;10.022;2023-12-22T12:50:46;8.47;;;2.00;;
20454;SDS011;10386;54.314;10.022;2023-12-22T12:53:15;7.60;;;1.97;;
20454;SDS011;10386;54.314;10.022;2023-12-22T12:55:42;9.33;;;2.00;;
20454;SDS011;10386;54.314;10.022;2023-12-22T12:58:10;9.37;;;2.00;;
20454;SDS011;10386;54.314;10.022;2023-12-22T13:00:37;7.67;;;1.87;;
20454;SDS011;10386;54.314;10.022;2023-12-22T13:03:05;8.93;;;2.17;;
20454;SDS011;10386;54.314;10.022;2023-12-22T13:05:33;10.53;;;2.10;;
20454;SDS011;10386;54.314;10.022;2023-12-22T13:08:08;11.83;;;2.00;;
20454;SDS011;10386;54.314;10.022;2023-12-22T13:10:36;9.27;;;2.00;;
20454;SDS011;10386;54.314;10.022;2023-12-22T13:13:04;6.23;;;2.10;;
20454;SDS011;10386;54.314;10.022;2023-12-22T13:15:32;8.43;;;1.90;;
20454;SDS011;10386;54.314;10.022;2023-12-22T13:17:59;12.87;;;2.23;;
20454;SDS011;10386;54.314;10.022;2023-12-22T13:20:26;8.03;;;2.83;;
20454;SDS011;10386;54.314;10.022;2023-12-22T13:22:54;10.07;;;1.90;;
20454;SDS011;10386;54.314;10.022;2023-12-22T13:25:21;6.67;;;2.53;;
20454;SDS011;10386;54.314;10.022;2023-12-22T13:27:50;15.93;;;2.00;;
20454;SDS011;10386;54.314;10.022;2023-12-22T13:32:58;9.33;;;1.97;;
20454;SDS011;10386;54.314;10.022;2023-12-22T13:35:25;8.23;;;2.07;;
20454;SDS011;10386;54.314;10.022;2023-12-22T13:37:54;8.73;;;2.27;;
20454;SDS011;10386;54.314;10.022;2023-12-22T13:40:21;16.40;;;2.30;;
20454;SDS011;10386;54.314;10.022;2023-12-22T13:42:56;8.73;;;1.87;;
20454;SDS011;10386;54.314;10.022;2023-12-22T13:45:30;5.67;;;2.27;;
20454;SDS011;10386;54.314;10.022;2023-12-22T13:47:58;10.63;;;2.10;;
20454;SDS011;10386;54.314;10.022;2023-12-22T13:50:25;8.00;;;2.63;;
20454;SDS011;10386;54.314;10.022;2023-12-22T13:52:52;9.63;;;2.17;;
20454;SDS011;10386;54.314;10.022;2023-12-22T13:55:19;9.43;;;2.23;;
20454;SDS011;10386;54.314;10.022;2023-12-22T13:57:58;9.60;;;2.03;;
20454;SDS011;10386;54.314;10.022;2023-12-22T14:00:27;8.63;;;2.40;;
20454;SDS011;10386;54.314;10.022;2023-12-22T14:02:55;11.97;;;2.50;;
20454;SDS011;10386;54.314;10.022;2023-12-22T14:05:23;11.53;;;2.57;;
20454;SDS011;10386;54.314;10.022;2023-12-22T14:07:50;9.13;;;1.97;;
20454;SDS011;10386;54.314;10.022;2023-12-22T14:10:18;15.33;;;2.33;;
20454;SDS011;10386;54.314;10.022;2023-12-22T14:12:46;13.63;;;2.27;;
20454;SDS011;10386;54.314;10.022;2023-12-22T14:15:13;8.13;;;2.33;;
20454;SDS011;10386;54.314;10.022;2023-12-22T14:17:40;7.00;;;2.17;;
20454;SDS011;10386;54.314;10.022;2023-12-22T14:20:10;5.63;;;1.77;;
20454;SDS011;10386;54.314;10.022;2023-12-22T14:22:39;11.57;;;2.00;;
20454;SDS011;10386;54.314;10.022;2023-12-22T14:25:06;11.13;;;2.17;;
20454;SDS011;10386;54.314;10.022;2023-12-22T14:27:33;7.50;;;1.97;;
20454;SDS011;10386;54.314;10.022;2023-12-22T14:30:00;11.37;;;2.03;;
20454;SDS011;10386;54.314;10.022;2023-12-22T14:32:27;10.63;;;2.07;;
20454;SDS011;10386;54.314;10.022;2023-12-22T14:34:56;8.57;;;1.93;;
20454;SDS011;10386;54.314;10.022;2023-12-22T14:37:27;12.13;;;2.30;;
20454;SDS011;10386;54.314;10.022;2023-12-22T14:44:08;10.00;;;1.90;;
20454;SDS011;10386;54.314;10.022;2023-12-22T14:55:51;11.83;;;2.43;;
20454;SDS011;10386;54.314;10.022;2023-12-22T15:10:32;11.47;;;2.43;;
20454;SDS011;10386;54.314;10.022;2023-12-22T15:13:39;9.83;;;2.37;;
20454;SDS011;10386;54.314;10.022;2023-12-22T15:16:42;9.73;;;2.63;;
20454;SDS011;10386;54.314;10.022;2023-12-22T15:19:58;10.73;;;3.50;;
20454;SDS011;10386;54.314;10.022;2023-12-22T15:29:14;9.43;;;2.30;;
20454;SDS011;10386;54.314;10.022;2023-12-22T15:31:54;12.57;;;2.30;;
20454;SDS011;10386;54.314;10.022;2023-12-22T15:34:32;7.90;;;2.13;;
20454;SDS011;10386;54.314;10.022;2023-12-22T15:37:28;6.80;;;2.37;;
20454;SDS011;10386;54.314;10.022;2023-12-22T16:00:07;14.50;;;2.77;;
20454;SDS011;10386;54.314;10.022;2023-12-22T16:02:43;9.67;;;1.90;;
20454;SDS011;10386;54.314;10.022;2023-12-22T16:05:31;6.40;;;2.07;;
20454;SDS011;10386;54.314;10.022;2023-12-22T16:08:23;11.33;;;2.13;;
20454;SDS011;10386;54.314;10.022;2023-12-22T16:11:18;3.60;;;2.37;;
20454;SDS011;10386;54.314;10.022;2023-12-22T16:23:27;9.17;;;1.80;;
20454;SDS011;10386;54.314;10.022;2023-12-22T17:06:03;9.07;;;3.03;;
20454;SDS011;10386;54.314;10.022;2023-12-22T17:09:08;9.70;;;2.20;;
20454;SDS011;10386;54.314;10.022;2023-12-22T17:14:56;19.87;;;2.97;;
20454;SDS011;10386;54.314;10.022;2023-12-22T17:26:52;10.63;;;2.27;;
20454;SDS011;10386;54.314;10.022;2023-12-22T17:29:30;10.40;;;2.37;;
20454;SDS011;10386;54.314;10.022;2023-12-22T17:32:03;6.03;;;2.30;;
20454;SDS011;10386;54.314;10.022;2023-12-22T17:34:51;14.17;;;2.50;;
20454;SDS011;10386;54.314;10.022;2023-12-22T17:40:33;9.03;;;2.47;;
20454;SDS011;10386;54.314;10.022;2023-12-22T17:58:23;6.33;;;2.27;;
20454;SDS011;10386;54.314;10.022;2023-12-22T18:32:19;9.20;;;3.07;;
20454;SDS011;10386;54.314;10.022;2023-12-22T18:34:46;12.70;;;4.77;;
20454;SDS011;10386;54.314;10.022;2023-12-22T18:37:13;27.00;;;9.30;;
20454;SDS011;10386;54.314;10.022;2023-12-22T18:39:40;18.37;;;5.40;;
20454;SDS011;10386;54.314;10.022;2023-12-22T18:42:07;22.40;;;6.97;;
20454;SDS011;10386;54.314;10.022;2023-12-22T18:44:34;20.50;;;4.87;;
20454;SDS011;10386;54.314;10.022;2023-12-22T18:47:01;20.60;;;5.73;;
20454;SDS011;10386;54.314;10.022;2023-12-22T18:49:28;8.07;;;3.40;;
20454;SDS011;10386;54.314;10.022;2023-12-22T18:51:55;7.80;;;3.13;;
20454;SDS011;10386;54.314;10.022;2023-12-22T18:54:22;13.83;;;4.37;;
20454;SDS011;10386;54.314;10.022;2023-12-22T18:56:49;10.67;;;2.10;;
20454;SDS011;10386;54.314;10.022;2023-12-22T18:59:16;17.13;;;2.53;;
20454;SDS011;10386;54.314;10.022;2023-12-22T19:01:43;7.07;;;1.83;;
20454;SDS011;10386;54.314;10.022;2023-12-22T19:04:30;7.00;;;2.63;;
20454;SDS011;10386;54.314;10.022;2023-12-22T19:06:57;9.13;;;1.90;;
20454;SDS011;10386;54.314;10.022;2023-12-22T19:09:24;6.70;;;1.80;;
20454;SDS011;10386;54.314;10.022;2023-12-22T19:11:51;7.50;;;2.60;;
20454;SDS011;10386;54.314;10.022;2023-12-22T19:14:18;4.87;;;2.30;;